createdAt,value
2018-02-22T00:02:17.362Z,32.97
2018-02-22T00:04:48.696Z,31.97
2018-02-22T00:07:18.671Z,31.07
2018-02-22T00:09:48.520Z,30.53
2018-02-22T00:12:18.453Z,32.03
2018-02-22T00:14:48.400Z,31.30
2018-02-22T00:17:18.254Z,31.07
2018-02-22T00:19:48.164Z,32.83
2018-02-22T00:22:18.803Z,33.03
2018-02-22T00:24:48.885Z,35.87
2018-02-22T00:27:18.766Z,32.60
2018-02-22T00:29:48.617Z,34.50
2018-02-22T00:32:18.482Z,32.73
2018-02-22T00:34:48.537Z,33.43
2018-02-22T00:37:18.399Z,32.70
2018-02-22T00:39:48.248Z,34.60
2018-02-22T00:42:18.160Z,36.00
2018-02-22T00:44:48.028Z,33.87
2018-02-22T00:47:17.927Z,35.37
2018-02-22T00:49:47.778Z,34.43
2018-02-22T00:52:17.624Z,32.67
2018-02-22T00:54:47.443Z,33.87
2018-02-22T00:57:17.285Z,34.90
2018-02-22T00:59:47.166Z,36.40
2018-02-22T01:02:17.028Z,36.20
2018-02-22T01:04:47.362Z,34.50
2018-02-22T01:07:17.217Z,32.63
2018-02-22T01:09:47.073Z,36.63
2018-02-22T01:12:17.345Z,34.30
2018-02-22T01:14:47.209Z,36.10
2018-02-22T01:17:17.083Z,35.37
2018-02-22T01:19:47.118Z,37.37
2018-02-22T01:22:17.003Z,34.53
2018-02-22T01:24:46.920Z,33.93
2018-02-22T01:27:16.753Z,33.80
2018-02-22T01:29:46.651Z,32.10
2018-02-22T01:32:16.532Z,36.23
2018-02-22T01:34:46.371Z,32.60
2018-02-22T01:37:16.317Z,30.83
2018-02-22T01:39:46.171Z,32.67
2018-02-22T01:42:16.163Z,33.90
2018-02-22T01:44:46.019Z,34.73
2018-02-22T01:47:15.920Z,34.40
2018-02-22T01:49:45.801Z,34.27
2018-02-22T01:52:15.661Z,37.00
2018-02-22T01:54:45.509Z,34.80
2018-02-22T01:57:15.415Z,36.27
2018-02-22T01:59:45.348Z,35.90
2018-02-22T02:02:15.204Z,35.37
2018-02-22T02:04:45.121Z,34.33
2018-02-22T02:07:14.977Z,34.50
2018-02-22T02:09:44.853Z,33.67
2018-02-22T02:12:14.728Z,34.40
2018-02-22T02:14:44.588Z,34.90
2018-02-22T02:17:14.468Z,34.17
2018-02-22T02:19:44.797Z,36.13
2018-02-22T02:22:14.766Z,34.67
2018-02-22T02:24:44.701Z,35.67
2018-02-22T02:27:14.674Z,36.40
2018-02-22T02:29:44.704Z,32.37
2018-02-22T02:32:14.599Z,34.73
2018-02-22T02:34:44.488Z,34.70
2018-02-22T02:37:14.510Z,37.70
2018-02-22T02:39:44.375Z,34.20
2018-02-22T02:42:14.268Z,32.67
2018-02-22T02:44:44.166Z,31.43
2018-02-22T02:47:14.064Z,32.77
2018-02-22T02:49:43.969Z,33.30
2018-02-22T02:52:13.829Z,32.30
2018-02-22T02:54:43.738Z,32.07
2018-02-22T02:57:13.623Z,33.07
2018-02-22T02:59:43.532Z,33.90
2018-02-22T03:02:13.374Z,34.87
2018-02-22T03:04:43.262Z,32.20
2018-02-22T03:07:13.107Z,35.60
2018-02-22T03:09:43.215Z,32.97
2018-02-22T03:12:13.157Z,34.50
2018-02-22T03:14:43.061Z,32.00
2018-02-22T03:17:12.966Z,32.83
2018-02-22T03:19:43.041Z,32.80
2018-02-22T03:22:12.956Z,33.80
2018-02-22T03:24:42.810Z,35.20
2018-02-22T03:27:12.727Z,32.93
2018-02-22T03:29:42.630Z,34.20
2018-02-22T03:32:12.622Z,35.23
2018-02-22T03:34:42.979Z,34.23
2018-02-22T03:37:12.865Z,33.00
2018-02-22T03:39:42.722Z,33.17
2018-02-22T03:42:12.630Z,32.70
2018-02-22T03:44:42.466Z,31.67
2018-02-22T03:47:12.346Z,36.27
2018-02-22T03:49:42.405Z,33.63
2018-02-22T03:52:12.317Z,35.47
2018-02-22T03:54:42.183Z,32.83
2018-02-22T03:57:12.055Z,35.23
2018-02-22T03:59:41.934Z,34.20
2018-02-22T04:02:11.776Z,33.27
2018-02-22T04:04:41.626Z,31.77
2018-02-22T04:07:12.097Z,32.80
2018-02-22T04:09:42.003Z,32.37
2018-02-22T04:12:11.899Z,32.30
2018-02-22T04:14:41.769Z,32.70
2018-02-22T04:17:11.678Z,33.93
2018-02-22T04:19:41.543Z,35.40
2018-02-22T04:22:11.413Z,31.30
2018-02-22T04:24:41.330Z,34.27
2018-02-22T04:27:11.208Z,32.77
2018-02-22T04:29:41.125Z,33.70
2018-02-22T04:32:11.005Z,34.20
2018-02-22T04:37:17.145Z,32.13
2018-02-22T04:39:47.103Z,31.77
2018-02-22T04:42:17.022Z,32.30
2018-02-22T04:44:46.947Z,33.03
2018-02-22T04:47:16.850Z,31.70
2018-02-22T04:49:46.744Z,34.43
2018-02-22T04:52:16.655Z,33.17
2018-02-22T04:54:46.602Z,32.87
2018-02-22T04:57:16.594Z,33.77
2018-02-22T04:59:46.446Z,31.50
2018-02-22T05:02:18.107Z,34.03
2018-02-22T05:04:47.950Z,33.17
2018-02-22T05:07:17.826Z,32.53
2018-02-22T05:09:47.722Z,31.73
2018-02-22T05:12:17.613Z,32.43
2018-02-22T05:14:47.524Z,31.33
2018-02-22T05:17:17.427Z,27.73
2018-02-22T05:19:47.343Z,30.93
2018-02-22T05:22:17.211Z,30.60
2018-02-22T05:24:47.105Z,32.60
2018-02-22T05:27:17.072Z,32.17
2018-02-22T05:29:46.951Z,33.43
2018-02-22T05:32:16.800Z,33.87
2018-02-22T05:34:46.764Z,33.33
2018-02-22T05:37:16.671Z,35.33
2018-02-22T05:39:46.529Z,36.07
2018-02-22T05:42:16.487Z,33.03
2018-02-22T05:44:46.354Z,33.20
2018-02-22T05:47:16.360Z,32.67
2018-02-22T05:49:46.234Z,33.50
2018-02-22T05:52:16.148Z,33.37
2018-02-22T05:54:46.068Z,33.93
2018-02-22T05:57:16.800Z,29.60
2018-02-22T05:59:46.673Z,33.10
2018-02-22T06:02:16.639Z,34.50
2018-02-22T06:04:46.526Z,30.00
2018-02-22T06:07:16.570Z,33.60
2018-02-22T06:09:46.438Z,28.83
2018-02-22T06:12:16.370Z,29.57
2018-02-22T06:14:46.215Z,29.77
2018-02-22T06:17:16.133Z,30.80
2018-02-22T06:19:46.806Z,28.97
2018-02-22T06:22:16.738Z,29.60
2018-02-22T06:24:46.664Z,30.07
2018-02-22T06:27:17.644Z,26.93
2018-02-22T06:29:47.675Z,29.87
2018-02-22T06:32:17.533Z,26.90
2018-02-22T06:34:47.485Z,30.60
2018-02-22T06:37:17.370Z,30.07
2018-02-22T06:39:47.248Z,30.20
2018-02-22T06:42:17.210Z,30.10
2018-02-22T06:44:47.276Z,30.60
2018-02-22T06:47:18.082Z,30.40
2018-02-22T06:49:47.939Z,26.17
2018-02-22T06:52:17.861Z,28.60
2018-02-22T06:54:47.765Z,33.33
2018-02-22T06:57:18.048Z,33.00
2018-02-22T06:59:47.972Z,32.80
2018-02-22T07:02:17.826Z,30.97
2018-02-22T07:04:47.944Z,30.80
2018-02-22T07:07:17.865Z,30.37
2018-02-22T07:09:47.984Z,32.73
2018-02-22T07:12:17.889Z,23.27
2018-02-22T07:14:47.861Z,29.17
2018-02-22T07:17:18.732Z,32.70
2018-02-22T07:19:48.787Z,33.00
2018-02-22T07:22:18.661Z,30.57
2018-02-22T07:24:48.570Z,31.87
2018-02-22T07:27:18.462Z,30.27
2018-02-22T07:29:48.358Z,31.17
2018-02-22T07:32:19.254Z,32.83
2018-02-22T07:34:49.236Z,30.60
2018-02-22T07:37:19.127Z,33.17
2018-02-22T07:39:49.050Z,32.30
2018-02-22T07:42:18.895Z,33.90
2018-02-22T07:44:49.484Z,31.10
2018-02-22T07:47:19.377Z,31.53
2018-02-22T07:49:50.038Z,30.20
2018-02-22T07:52:19.923Z,28.00
2018-02-22T07:54:49.827Z,30.80
2018-02-22T07:57:19.920Z,30.30
2018-02-22T07:59:50.638Z,29.67
2018-02-22T08:02:20.671Z,29.50
2018-02-22T08:04:50.523Z,28.97
2018-02-22T08:07:20.441Z,27.50
2018-02-22T08:09:50.324Z,29.40
2018-02-22T08:12:20.199Z,30.17
2018-02-22T08:14:50.714Z,31.70
2018-02-22T08:17:20.689Z,31.03
2018-02-22T08:19:50.710Z,31.60
2018-02-22T08:22:20.618Z,30.77
2018-02-22T08:24:50.502Z,33.40
2018-02-22T08:27:20.386Z,29.30
2018-02-22T08:29:50.269Z,29.63
2018-02-22T08:32:20.185Z,30.33
2018-02-22T08:34:51.664Z,31.63
2018-02-22T08:37:21.566Z,30.27
2018-02-22T08:39:51.414Z,28.57
2018-02-22T08:42:21.381Z,30.20
2018-02-22T08:44:51.799Z,30.90
2018-02-22T08:47:21.682Z,33.33
2018-02-22T08:49:51.536Z,31.63
2018-02-22T08:52:21.413Z,30.30
2018-02-22T08:54:51.258Z,31.80
2018-02-22T08:57:21.165Z,27.50
2018-02-22T08:59:51.003Z,29.27
2018-02-22T09:02:21.122Z,30.70
2018-02-22T09:04:50.969Z,31.47
2018-02-22T09:07:20.837Z,29.63
2018-02-22T09:09:50.700Z,28.70
2018-02-22T09:12:20.540Z,30.57
2018-02-22T09:14:50.390Z,30.03
2018-02-22T09:17:20.240Z,27.67
2018-02-22T09:19:50.229Z,29.53
2018-02-22T09:22:20.094Z,30.00
2018-02-22T09:24:49.974Z,29.93
2018-02-22T09:27:19.806Z,30.90
2018-02-22T09:29:49.694Z,31.33
2018-02-22T09:32:19.524Z,29.70
2018-02-22T09:34:49.427Z,29.03
2018-02-22T09:37:19.295Z,28.97
2018-02-22T09:39:49.139Z,29.00
2018-02-22T09:42:19.260Z,31.87
2018-02-22T09:44:49.142Z,31.63
2018-02-22T09:47:19.074Z,28.93
2018-02-22T09:49:48.909Z,29.30
2018-02-22T09:52:18.863Z,31.10
2018-02-22T09:54:48.884Z,31.00
2018-02-22T09:57:18.892Z,31.77
2018-02-22T09:59:48.790Z,31.90
2018-02-22T10:02:18.745Z,29.43
2018-02-22T10:04:48.685Z,29.80
2018-02-22T10:07:18.524Z,29.17
2018-02-22T10:09:48.527Z,28.17
2018-02-22T10:12:18.527Z,29.17
2018-02-22T10:14:48.500Z,27.40
2018-02-22T10:17:18.483Z,29.13
2018-02-22T10:19:49.261Z,27.70
2018-02-22T10:22:19.093Z,26.50
2018-02-22T10:24:48.980Z,28.07
2018-02-22T10:27:19.344Z,26.40
2018-02-22T10:29:49.710Z,27.47
2018-02-22T10:32:19.572Z,28.57
2018-02-22T10:34:49.507Z,25.53
2018-02-22T10:37:19.342Z,24.70
2018-02-22T10:39:49.291Z,24.40
2018-02-22T10:42:19.137Z,24.13
2018-02-22T10:44:49.258Z,23.77
2018-02-22T10:47:19.526Z,26.13
2018-02-22T10:49:49.558Z,25.23
2018-02-22T10:52:19.548Z,24.50
2018-02-22T10:54:50.113Z,24.07
2018-02-22T10:57:19.973Z,27.00
2018-02-22T10:59:49.857Z,22.30
2018-02-22T11:02:25.471Z,24.80
2018-02-22T11:04:55.469Z,22.40
2018-02-22T11:07:25.401Z,21.73
2018-02-22T11:09:55.523Z,21.53
2018-02-22T11:12:25.366Z,15.10
2018-02-22T11:14:55.240Z,13.70
2018-02-22T11:17:25.117Z,21.60
2018-02-22T11:19:54.980Z,17.77
2018-02-22T11:22:24.877Z,15.37
2018-02-22T11:24:54.762Z,14.17
2018-02-22T11:27:25.068Z,16.00
2018-02-22T11:29:54.921Z,17.00
2018-02-22T11:32:24.787Z,18.77
2018-02-22T11:34:54.758Z,20.90
2018-02-22T11:37:24.931Z,21.73
2018-02-22T11:39:54.835Z,21.17
2018-02-22T11:42:24.783Z,23.30
2018-02-22T11:44:54.947Z,23.30
2018-02-22T11:47:29.264Z,24.20
2018-02-22T11:49:59.257Z,23.57
2018-02-22T11:52:29.303Z,23.60
2018-02-22T11:54:59.752Z,23.70
2018-02-22T11:57:29.646Z,24.67
2018-02-22T12:00:00.350Z,24.23
2018-02-22T12:02:30.265Z,22.87
2018-02-22T12:05:00.116Z,22.23
2018-02-22T12:07:30.300Z,22.73
2018-02-22T12:10:00.260Z,21.47
2018-02-22T12:12:30.241Z,22.30
2018-02-22T12:15:00.139Z,20.50
2018-02-22T12:17:29.990Z,18.63
2018-02-22T12:19:59.881Z,20.93
2018-02-22T12:22:32.207Z,19.90
2018-02-22T12:25:02.138Z,17.47
2018-02-22T12:27:32.373Z,15.70
2018-02-22T12:30:02.373Z,17.80
2018-02-22T12:32:32.272Z,21.87
2018-02-22T12:35:02.166Z,18.70
2018-02-22T12:37:32.025Z,20.43
2018-02-22T12:40:01.969Z,19.33
2018-02-22T12:42:32.002Z,19.17
2018-02-22T12:45:01.863Z,19.67
2018-02-22T12:47:31.888Z,19.37
2018-02-22T12:50:01.953Z,19.60
2018-02-22T12:52:31.921Z,21.27
2018-02-22T12:55:01.825Z,19.60
2018-02-22T12:57:31.749Z,19.87
2018-02-22T13:00:01.979Z,19.13
2018-02-22T13:02:31.846Z,22.20
2018-02-22T13:05:01.846Z,13.80
2018-02-22T13:07:31.677Z,16.40
2018-02-22T13:10:01.803Z,17.43
2018-02-22T13:12:31.610Z,18.20
2018-02-22T13:15:01.482Z,18.67
2018-02-22T13:17:31.388Z,20.13
2018-02-22T13:20:01.317Z,19.10
2018-02-22T13:22:31.294Z,17.80
2018-02-22T13:25:01.205Z,19.40
2018-02-22T13:27:31.758Z,19.47
2018-02-22T13:30:01.636Z,18.40
2018-02-22T13:32:43.289Z,18.40
2018-02-22T13:35:13.236Z,17.60
2018-02-22T13:40:55.468Z,17.53
2018-02-22T13:43:25.375Z,15.90
2018-02-22T13:48:25.414Z,19.10
2018-02-22T13:51:16.158Z,17.13
2018-02-22T13:53:46.206Z,18.37
2018-02-22T13:56:28.001Z,17.80
2018-02-22T13:58:57.918Z,19.53
2018-02-22T14:01:39.703Z,17.57
2018-02-22T14:04:09.644Z,15.33
2018-02-22T14:06:39.565Z,14.43
2018-02-22T14:09:09.444Z,15.67
2018-02-22T14:11:39.428Z,15.50
2018-02-22T14:14:09.303Z,15.50
2018-02-22T14:16:39.257Z,15.23
2018-02-22T14:19:09.152Z,16.60
2018-02-22T14:21:39.006Z,16.27
2018-02-22T14:24:08.913Z,16.20
2018-02-22T14:26:38.766Z,17.47
2018-02-22T14:29:08.702Z,16.93
2018-02-22T14:31:38.592Z,19.03
2018-02-22T14:34:08.499Z,16.40
2018-02-22T14:36:39.115Z,16.57
2018-02-22T14:39:08.999Z,17.63
2018-02-22T14:41:38.885Z,18.80
2018-02-22T14:44:08.828Z,18.20
2018-02-22T14:46:38.725Z,18.47
2018-02-22T14:49:08.592Z,15.50
2018-02-22T14:51:38.449Z,19.87
2018-02-22T14:54:08.314Z,16.87
2018-02-22T14:56:38.330Z,17.43
2018-02-22T14:59:08.225Z,17.50
2018-02-22T15:01:38.088Z,16.03
2018-02-22T15:04:07.967Z,15.77
2018-02-22T15:06:37.826Z,16.97
2018-02-22T15:09:07.734Z,16.97
2018-02-22T15:11:37.648Z,17.17
2018-02-22T15:14:07.493Z,16.60
2018-02-22T15:16:37.446Z,17.27
2018-02-22T15:19:07.338Z,15.60
2018-02-22T15:21:37.284Z,15.33
2018-02-22T15:24:07.131Z,16.30
2018-02-22T15:26:37.094Z,16.57
2018-02-22T15:29:06.975Z,18.40
2018-02-22T15:31:36.844Z,17.80
2018-02-22T15:34:06.729Z,16.97
2018-02-22T15:36:36.616Z,18.33
2018-02-22T15:39:06.480Z,17.03
2018-02-22T15:41:37.687Z,18.70
2018-02-22T15:44:07.556Z,15.00
2018-02-22T15:46:37.512Z,14.17
2018-02-22T15:49:07.412Z,18.20
2018-02-22T15:51:37.274Z,16.90
2018-02-22T15:54:07.360Z,18.60
2018-02-22T15:56:37.407Z,20.83
2018-02-22T15:59:07.706Z,17.50
2018-02-22T16:01:37.723Z,21.40
2018-02-22T16:04:07.720Z,22.63
2018-02-22T16:06:37.637Z,14.20
2018-02-22T16:09:07.570Z,23.83
2018-02-22T16:11:37.528Z,23.67
2018-02-22T16:14:07.463Z,25.57
2018-02-22T16:16:37.323Z,26.03
2018-02-22T16:19:07.258Z,25.60
2018-02-22T16:21:37.143Z,22.17
2018-02-22T16:24:07.613Z,20.73
2018-02-22T16:26:37.519Z,24.57
2018-02-22T16:29:07.473Z,25.50
2018-02-22T16:31:37.554Z,27.53
2018-02-22T16:34:07.409Z,25.57
2018-02-22T16:36:37.255Z,25.40
2018-02-22T16:39:07.200Z,24.87
2018-02-22T16:41:37.116Z,27.17
2018-02-22T16:44:07.040Z,19.23
2018-02-22T16:46:36.909Z,30.10
2018-02-22T16:49:07.822Z,27.57
2018-02-22T16:51:37.732Z,27.33
2018-02-22T16:54:07.594Z,27.13
2018-02-22T16:56:37.561Z,29.60
2018-02-22T16:59:07.600Z,30.60
2018-02-22T17:01:37.488Z,29.00
2018-02-22T17:04:07.474Z,27.10
2018-02-22T17:06:37.326Z,29.73
2018-02-22T17:09:07.797Z,31.00
2018-02-22T17:11:37.800Z,30.07
2018-02-22T17:14:07.708Z,28.07
2018-02-22T17:16:37.682Z,24.20
2018-02-22T17:19:07.593Z,29.60
2018-02-22T17:21:37.479Z,32.40
2018-02-22T17:24:14.919Z,30.10
2018-02-22T17:26:50.526Z,30.23
2018-02-22T17:29:25.844Z,30.37
2018-02-22T17:32:04.067Z,24.77
2018-02-22T17:34:34.019Z,24.83
2018-02-22T17:37:04.402Z,27.27
2018-02-22T17:39:39.847Z,24.30
2018-02-22T17:42:09.836Z,22.17
2018-02-22T17:44:39.740Z,17.13
2018-02-22T17:47:09.621Z,21.80
2018-02-22T17:49:39.710Z,20.40
2018-02-22T17:52:09.837Z,16.83
2018-02-22T17:54:39.761Z,14.77
2018-02-22T17:57:09.654Z,17.03
2018-02-22T17:59:39.582Z,14.57
2018-02-22T18:02:09.439Z,14.03
2018-02-22T18:04:39.280Z,13.40
2018-02-22T18:07:09.185Z,11.37
2018-02-22T18:09:39.037Z,12.27
2018-02-22T18:12:08.932Z,11.87
2018-02-22T18:14:38.813Z,12.03
2018-02-22T18:17:08.743Z,13.20
2018-02-22T18:19:38.606Z,12.07
2018-02-22T18:22:08.452Z,12.27
2018-02-22T18:24:38.527Z,12.60
2018-02-22T18:27:08.450Z,12.73
2018-02-22T18:29:38.333Z,10.00
2018-02-22T18:32:08.215Z,11.03
2018-02-22T18:34:38.187Z,9.43
2018-02-22T18:37:13.650Z,12.60
2018-02-22T18:39:43.754Z,10.07
2018-02-22T18:42:20.311Z,9.80
2018-02-22T18:44:55.987Z,9.83
2018-02-22T18:47:25.817Z,11.33
2018-02-22T18:49:55.661Z,9.57
2018-02-22T18:52:26.631Z,11.87
2018-02-22T18:54:56.482Z,11.13
2018-02-22T18:57:26.442Z,9.50
2018-02-22T18:59:56.302Z,11.00
2018-02-22T19:02:26.210Z,9.73
2018-02-22T19:04:56.136Z,10.33
2018-02-22T19:07:26.583Z,10.30
2018-02-22T19:09:56.651Z,9.20
2018-02-22T19:12:26.603Z,10.00
2018-02-22T19:14:56.839Z,8.70
2018-02-22T19:17:26.898Z,9.30
2018-02-22T19:19:56.739Z,9.57
2018-02-22T19:22:26.588Z,9.50
2018-02-22T19:24:56.458Z,7.00
2018-02-22T19:27:26.349Z,7.00
2018-02-22T19:29:56.264Z,9.23
2018-02-22T19:32:26.405Z,8.20
2018-02-22T19:34:56.329Z,7.80
2018-02-22T19:37:26.711Z,7.93
2018-02-22T19:39:56.584Z,8.70
2018-02-22T19:42:26.432Z,8.50
2018-02-22T19:44:56.342Z,7.90
2018-02-22T19:47:26.781Z,7.73
2018-02-22T19:49:56.717Z,8.57
2018-02-22T19:52:26.571Z,7.30
2018-02-22T19:54:56.440Z,7.03
2018-02-22T19:57:27.048Z,7.60
2018-02-22T19:59:56.937Z,7.53
2018-02-22T20:02:26.778Z,6.77
2018-02-22T20:04:56.635Z,6.43
2018-02-22T20:07:27.140Z,6.33
2018-02-22T20:09:57.003Z,7.67
2018-02-22T20:12:26.890Z,7.00
2018-02-22T20:14:56.828Z,7.30
2018-02-22T20:17:26.988Z,7.00
2018-02-22T20:19:58.586Z,6.67
2018-02-22T20:22:28.682Z,7.30
2018-02-22T20:24:58.538Z,6.87
2018-02-22T20:27:28.756Z,8.03
2018-02-22T20:29:58.673Z,6.67
2018-02-22T20:32:28.627Z,7.57
2018-02-22T20:34:58.470Z,6.90
2018-02-22T20:37:28.637Z,7.23
2018-02-22T20:39:58.509Z,8.63
2018-02-22T20:42:28.394Z,7.27
2018-02-22T20:44:58.259Z,8.07
2018-02-22T20:47:28.127Z,6.20
2018-02-22T20:49:57.982Z,8.00
2018-02-22T20:52:27.882Z,6.37
2018-02-22T20:55:14.564Z,6.60
2018-02-22T20:57:44.539Z,6.00
2018-02-22T21:00:15.091Z,7.37
2018-02-22T21:02:45.104Z,6.20
2018-02-22T21:05:14.994Z,6.90
2018-02-22T21:07:44.886Z,6.37
2018-02-22T21:10:14.731Z,5.90
2018-02-22T21:12:44.592Z,6.63
2018-02-22T21:15:14.450Z,6.13
2018-02-22T21:17:44.297Z,6.37
2018-02-22T21:20:14.226Z,7.80
2018-02-22T21:22:44.136Z,6.20
2018-02-22T21:25:14.045Z,7.00
2018-02-22T21:27:43.905Z,5.87
2018-02-22T21:30:13.769Z,6.73
2018-02-22T21:32:43.664Z,6.70
2018-02-22T21:35:13.655Z,6.30
2018-02-22T21:37:43.493Z,5.30
2018-02-22T21:40:13.316Z,5.97
2018-02-22T21:42:43.237Z,6.20
2018-02-22T21:45:13.324Z,7.80
2018-02-22T21:47:43.300Z,6.00
2018-02-22T21:50:13.187Z,7.03
2018-02-22T21:52:43.165Z,7.47
2018-02-22T21:55:13.230Z,6.60
2018-02-22T21:57:43.405Z,6.40
2018-02-22T22:00:13.247Z,6.00
2018-02-22T22:02:43.286Z,6.83
2018-02-22T22:05:13.820Z,5.03
2018-02-22T22:07:43.930Z,6.57
2018-02-22T22:10:14.015Z,6.80
2018-02-22T22:12:43.898Z,7.23
2018-02-22T22:15:14.158Z,7.07
2018-02-22T22:17:44.219Z,7.10
2018-02-22T22:20:14.071Z,7.73
2018-02-22T22:22:44.208Z,7.17
2018-02-22T22:25:14.050Z,6.30
2018-02-22T22:27:43.982Z,7.10
2018-02-22T22:30:13.970Z,5.73
2018-02-22T22:32:43.937Z,7.30
2018-02-22T22:35:14.056Z,7.10
2018-02-22T22:37:45.179Z,6.50
2018-02-22T22:40:15.097Z,6.50
2018-02-22T22:42:45.018Z,5.03
2018-02-22T22:45:14.852Z,7.10
2018-02-22T22:47:44.714Z,6.80
2018-02-22T22:50:14.677Z,7.00
2018-02-22T22:52:44.626Z,6.30
2018-02-22T22:55:14.483Z,7.57
2018-02-22T22:57:44.318Z,6.93
2018-02-22T23:00:16.341Z,6.60
2018-02-22T23:02:46.694Z,7.33
2018-02-22T23:05:16.605Z,4.80
2018-02-22T23:07:46.629Z,7.43
2018-02-22T23:10:16.546Z,5.90
2018-02-22T23:12:46.491Z,6.90
2018-02-22T23:15:16.447Z,6.60
2018-02-22T23:17:46.295Z,6.60
2018-02-22T23:20:16.344Z,6.13
2018-02-22T23:22:46.293Z,5.90
2018-02-22T23:25:16.260Z,7.30
2018-02-22T23:27:46.145Z,6.60
2018-02-22T23:30:16.050Z,7.67
2018-02-22T23:32:45.966Z,7.13
2018-02-22T23:35:15.856Z,6.13
2018-02-22T23:37:45.822Z,6.20
2018-02-22T23:40:21.409Z,7.57
2018-02-22T23:42:51.250Z,5.93
2018-02-22T23:45:21.206Z,6.80
2018-02-22T23:47:51.229Z,7.10
2018-02-22T23:50:21.145Z,5.87
2018-02-22T23:52:50.965Z,6.50
2018-02-22T23:55:20.854Z,6.77
2018-02-22T23:57:50.687Z,5.23
